Time;durP1;ratioP1;P1;durP2;ratioP2;P2;SDS_P1;SDS_P2;PMS_P1;PMS_P2;Temp;Humidity;BMP_temperature;BMP_pressure;BME280_temperature;BME280_humidity;BME280_pressure;Samples;Min_cycle;Max_cycle;Signal;HPM_P1;HPM_P2
2023/01/07 00:01:11;;;;;;;17.25;10.32;;;10.20;99.90;;;;;;5048320;28;20305;-36
2023/01/07 00:03:37;;;;;;;16.23;9.40;;;10.20;99.90;;;;;;5060975;28;20040;-37
2023/01/07 00:06:10;;;;;;;16.13;9.25;;;10.20;99.90;;;;;;5066690;28;20047;-37
2023/01/07 00:08:38;;;;;;;18.30;10.40;;;10.20;99.90;;;;;;5063672;28;20036;-38
2023/01/07 00:11:06;;;;;;;18.83;10.32;;;10.20;99.90;;;;;;5060698;28;20040;-36
2023/01/07 00:13:32;;;;;;;19.00;10.45;;;10.20;99.90;;;;;;5062072;28;20040;-36
2023/01/07 00:16:05;;;;;;;18.17;10.40;;;10.20;99.90;;;;;;5053290;28;20094;-36
2023/01/07 00:18:31;;;;;;;19.13;10.60;;;10.30;99.90;;;;;;5067024;28;20083;-39
2023/01/07 00:20:59;;;;;;;17.83;10.13;;;10.30;99.90;;;;;;5069021;28;20040;-37
2023/01/07 00:23:26;;;;;;;16.33;10.68;;;10.30;99.90;;;;;;5067388;28;20072;-39
2023/01/07 00:25:58;;;;;;;18.17;11.13;;;10.30;99.90;;;;;;5063879;28;20684;-40
2023/01/07 00:28:23;;;;;;;17.65;10.68;;;10.30;99.90;;;;;;5067873;28;20045;-37
2023/01/07 00:30:49;;;;;;;14.27;8.88;;;10.30;99.90;;;;;;5062352;28;20037;-36
2023/01/07 00:33:15;;;;;;;18.20;11.07;;;10.40;99.90;;;;;;5065141;28;20032;-36
2023/01/07 00:35:43;;;;;;;20.75;11.23;;;10.40;99.90;;;;;;5048349;28;20041;-39
2023/01/07 00:38:10;;;;;;;16.40;10.98;;;10.40;99.90;;;;;;5064654;28;20447;-36
2023/01/07 00:40:36;;;;;;;18.77;11.02;;;10.40;99.90;;;;;;5067226;28;20131;-36
2023/01/07 00:43:05;;;;;;;17.55;11.30;;;10.40;99.90;;;;;;5069744;28;20151;-36
2023/01/07 00:45:34;;;;;;;16.52;10.75;;;10.40;99.90;;;;;;5071793;28;20040;-36
2023/01/07 00:48:02;;;;;;;16.40;10.57;;;10.50;99.90;;;;;;5076804;28;20024;-36
2023/01/07 00:50:30;;;;;;;17.08;10.80;;;10.50;99.90;;;;;;5071737;28;20044;-39
2023/01/07 00:52:56;;;;;;;16.77;11.02;;;10.50;99.90;;;;;;5065893;28;20135;-38
2023/01/07 00:55:22;;;;;;;19.08;10.45;;;10.50;99.90;;;;;;5067265;28;20476;-37
2023/01/07 00:57:48;;;;;;;17.08;9.35;;;10.50;99.90;;;;;;5068874;28;20032;-37
2023/01/07 01:00:16;;;;;;;15.93;10.73;;;10.50;99.90;;;;;;5067752;28;20036;-41
2023/01/07 01:02:42;;;;;;;14.52;9.25;;;10.50;99.90;;;;;;5066302;28;20043;-37
2023/01/07 01:05:08;;;;;;;17.70;10.77;;;10.50;99.90;;;;;;5076593;28;20032;-40
2023/01/07 01:07:35;;;;;;;15.35;9.98;;;10.50;99.90;;;;;;5070029;28;20048;-37
2023/01/07 01:10:01;;;;;;;14.63;9.43;;;10.50;99.90;;;;;;5071913;28;20040;-39
2023/01/07 01:12:28;;;;;;;15.18;9.93;;;10.50;99.90;;;;;;5048602;28;20060;-38
2023/01/07 01:14:54;;;;;;;16.70;9.88;;;10.50;99.90;;;;;;5068146;28;20040;-36
2023/01/07 01:17:20;;;;;;;17.35;10.35;;;10.50;99.90;;;;;;5067970;28;20079;-37
2023/01/07 01:19:46;;;;;;;14.27;9.23;;;10.50;99.90;;;;;;5063884;28;20051;-36
2023/01/07 01:22:12;;;;;;;15.30;9.95;;;10.50;99.90;;;;;;5069844;28;20045;-37
2023/01/07 01:24:37;;;;;;;15.07;9.57;;;10.50;99.90;;;;;;5064695;28;20119;-37
2023/01/07 01:27:03;;;;;;;15.70;9.45;;;10.50;99.90;;;;;;5066798;28;20500;-36
2023/01/07 01:29:30;;;;;;;13.68;9.30;;;10.50;99.90;;;;;;5067685;28;20051;-36
2023/01/07 01:31:55;;;;;;;13.80;7.97;;;10.50;99.90;;;;;;5066306;28;20035;-36
2023/01/07 01:34:21;;;;;;;15.48;9.43;;;10.50;99.90;;;;;;5069709;28;20048;-39
2023/01/07 01:36:47;;;;;;;14.05;9.25;;;10.50;99.90;;;;;;5066806;28;20465;-37
2023/01/07 01:39:12;;;;;;;13.25;8.25;;;10.50;99.90;;;;;;5069877;28;20040;-36
2023/01/07 01:41:38;;;;;;;14.88;9.45;;;10.50;99.90;;;;;;5060685;28;20513;-36
2023/01/07 01:44:34;;;;;;;16.42;10.50;;;10.50;99.90;;;;;;5069405;28;20490;-36
2023/01/07 01:47:03;;;;;;;16.05;10.13;;;10.50;99.90;;;;;;5070223;28;20033;-36
2023/01/07 01:49:33;;;;;;;15.50;9.57;;;10.50;99.90;;;;;;5069015;28;20128;-36
2023/01/07 01:52:12;;;;;;;13.63;8.35;;;10.50;99.90;;;;;;5069252;28;20061;-39
2023/01/07 01:54:43;;;;;;;14.13;9.40;;;10.50;99.90;;;;;;5060944;28;20175;-36
2023/01/07 01:57:09;;;;;;;16.88;9.52;;;10.50;99.90;;;;;;5064461;28;20063;-36
2023/01/07 01:59:39;;;;;;;13.77;9.27;;;10.50;99.90;;;;;;5064468;28;20123;-37
2023/01/07 02:02:06;;;;;;;13.95;9.07;;;10.50;99.90;;;;;;5069536;28;20047;-37
2023/01/07 02:04:32;;;;;;;13.95;9.30;;;10.50;99.90;;;;;;5071560;28;20047;-39
2023/01/07 02:07:17;;;;;;;15.60;10.02;;;10.50;99.90;;;;;;5068505;28;20033;-41
2023/01/07 02:09:43;;;;;;;13.85;8.30;;;10.50;99.90;;;;;;5070056;28;20481;-36
2023/01/07 02:12:39;;;;;;;11.45;7.85;;;10.50;99.90;;;;;;5066663;28;20093;-36
2023/01/07 02:15:15;;;;;;;10.65;7.30;;;10.50;99.90;;;;;;5063695;28;20037;-37
2023/01/07 02:17:50;;;;;;;13.52;9.38;;;10.50;99.90;;;;;;5069177;28;20039;-36
2023/01/07 02:20:32;;;;;;;11.02;7.57;;;10.50;99.90;;;;;;5064576;28;20040;-40
2023/01/07 02:23:31;;;;;;;12.38;7.95;;;10.60;99.90;;;;;;5063350;28;20091;-36
2023/01/07 02:26:38;;;;;;;13.40;7.50;;;10.60;99.90;;;;;;5073636;28;20106;-36
2023/01/07 02:29:31;;;;;;;13.20;7.93;;;10.50;99.90;;;;;;5051610;28;20040;-36
2023/01/07 02:32:17;;;;;;;14.68;8.80;;;10.60;99.90;;;;;;5067358;28;20056;-38
2023/01/07 02:35:22;;;;;;;12.70;8.25;;;10.50;99.90;;;;;;5017428;28;20097;-37
2023/01/07 02:38:11;;;;;;;13.38;8.02;;;10.50;99.90;;;;;;5035100;28;20528;-36
2023/01/07 02:41:03;;;;;;;12.40;7.65;;;10.50;99.90;;;;;;5069892;28;20186;-41
2023/01/07 02:43:47;;;;;;;13.55;7.90;;;10.50;99.90;;;;;;5066543;28;20048;-36
2023/01/07 02:46:29;;;;;;;12.88;8.90;;;10.50;99.90;;;;;;5069958;28;20043;-37
2023/01/07 02:48:59;;;;;;;13.55;8.43;;;10.50;99.90;;;;;;5069419;28;20097;-37
2023/01/07 02:51:36;;;;;;;14.85;8.65;;;10.50;99.90;;;;;;5063352;28;20049;-37
2023/01/07 02:54:04;;;;;;;11.70;7.60;;;10.50;99.90;;;;;;5074929;28;20115;-37
2023/01/07 02:56:45;;;;;;;11.82;7.90;;;10.50;99.90;;;;;;5070989;28;20059;-35
2023/01/07 02:59:26;;;;;;;14.45;8.43;;;10.50;99.90;;;;;;5064265;28;20040;-38
2023/01/07 03:02:13;;;;;;;16.67;8.57;;;10.50;99.90;;;;;;5063106;28;20137;-41
2023/01/07 03:04:47;;;;;;;13.65;7.70;;;10.50;99.90;;;;;;5065136;28;20032;-37
2023/01/07 03:07:31;;;;;;;11.05;5.78;;;10.50;99.90;;;;;;5065812;28;20119;-40
2023/01/07 03:10:20;;;;;;;11.75;7.95;;;10.50;99.90;;;;;;5067761;28;20036;-37
2023/01/07 03:12:53;;;;;;;14.25;6.30;;;10.50;99.90;;;;;;5062830;28;20044;-37
2023/01/07 03:15:27;;;;;;;13.52;8.32;;;10.50;99.90;;;;;;5063972;28;20050;-36
2023/01/07 03:18:07;;;;;;;12.50;7.78;;;10.50;99.90;;;;;;5042818;28;20036;-37
2023/01/07 03:20:36;;;;;;;18.02;8.82;;;10.50;99.90;;;;;;5066748;28;20094;-39
2023/01/07 03:23:05;;;;;;;13.15;7.88;;;10.50;99.90;;;;;;5065588;28;20111;-36
2023/01/07 03:25:33;;;;;;;13.57;7.82;;;10.50;99.90;;;;;;5058618;28;20040;-37
2023/01/07 03:27:59;;;;;;;14.40;8.20;;;10.50;99.90;;;;;;5065296;28;20041;-36
2023/01/07 03:30:27;;;;;;;13.70;7.68;;;10.50;99.90;;;;;;5064897;28;20036;-37
2023/01/07 03:33:00;;;;;;;13.65;8.43;;;10.50;99.90;;;;;;5060098;28;20090;-37
2023/01/07 03:35:29;;;;;;;12.63;8.13;;;10.50;99.90;;;;;;5034963;28;20132;-38
2023/01/07 03:37:56;;;;;;;12.25;7.25;;;10.50;99.90;;;;;;5065567;28;20037;-37
2023/01/07 03:40:22;;;;;;;12.88;8.05;;;10.50;99.90;;;;;;5063902;28;20033;-38
2023/01/07 03:42:48;;;;;;;13.43;7.70;;;10.40;99.90;;;;;;5063267;28;20067;-36
2023/01/07 03:45:18;;;;;;;15.50;7.03;;;10.40;99.90;;;;;;5066025;28;20529;-37
2023/01/07 03:47:51;;;;;;;11.20;6.93;;;10.40;99.90;;;;;;5071440;28;20048;-37
2023/01/07 03:50:18;;;;;;;14.77;7.72;;;10.40;99.90;;;;;;5051618;28;20595;-36
2023/01/07 03:52:44;;;;;;;13.60;8.15;;;10.40;99.90;;;;;;5064649;28;20071;-38
2023/01/07 03:55:10;;;;;;;11.05;6.82;;;10.40;99.90;;;;;;5065178;28;20040;-36
2023/01/07 03:57:36;;;;;;;12.65;7.15;;;10.30;99.90;;;;;;5046990;28;20117;-37
2023/01/07 04:00:04;;;;;;;10.10;5.93;;;10.30;99.90;;;;;;5062659;28;20045;-38
2023/01/07 04:02:30;;;;;;;11.80;6.70;;;10.30;99.90;;;;;;5063939;28;20486;-36
2023/01/07 04:04:56;;;;;;;9.15;5.72;;;10.30;99.90;;;;;;5062147;28;20042;-38
2023/01/07 04:07:21;;;;;;;10.20;6.00;;;10.30;99.90;;;;;;5061136;28;20037;-37
2023/01/07 04:09:49;;;;;;;9.65;6.38;;;10.30;99.90;;;;;;5063564;28;20605;-37
2023/01/07 04:12:15;;;;;;;11.63;6.45;;;10.30;99.90;;;;;;5065455;28;20044;-37
2023/01/07 04:14:40;;;;;;;10.48;6.70;;;10.30;99.90;;;;;;5062118;28;20041;-36
2023/01/07 04:17:06;;;;;;;11.65;6.18;;;10.30;99.90;;;;;;5063916;28;20041;-36
2023/01/07 04:19:32;;;;;;;11.85;6.03;;;10.20;99.90;;;;;;5067593;28;20497;-37
2023/01/07 04:21:58;;;;;;;11.60;6.28;;;10.20;99.90;;;;;;5066208;28;20040;-37
2023/01/07 04:24:24;;;;;;;7.95;5.63;;;10.20;99.90;;;;;;5068082;28;20048;-37
2023/01/07 04:26:49;;;;;;;9.25;6.10;;;10.20;99.90;;;;;;5061995;28;20044;-37
2023/01/07 04:29:15;;;;;;;8.02;5.00;;;10.20;99.90;;;;;;5055343;28;20032;-37
2023/01/07 04:31:41;;;;;;;11.48;6.10;;;10.20;99.90;;;;;;5063615;28;20051;-38
2023/01/07 04:34:06;;;;;;;12.60;6.18;;;10.20;99.90;;;;;;5057961;28;20134;-39
2023/01/07 04:36:32;;;;;;;12.10;7.00;;;10.20;99.90;;;;;;5072353;28;20068;-39
2023/01/07 04:38:58;;;;;;;9.68;5.85;;;10.10;99.90;;;;;;5065297;28;20036;-39
2023/01/07 04:41:24;;;;;;;11.10;6.18;;;10.10;99.90;;;;;;5062994;28;20375;-37
2023/01/07 04:43:49;;;;;;;9.10;5.20;;;10.10;99.90;;;;;;5064541;28;20401;-36
2023/01/07 04:46:15;;;;;;;10.60;5.72;;;10.10;99.90;;;;;;5070019;28;20199;-37
2023/01/07 04:48:41;;;;;;;10.15;5.93;;;10.10;99.90;;;;;;5063088;28;20055;-40
2023/01/07 04:51:06;;;;;;;11.90;5.90;;;10.10;99.90;;;;;;5071151;28;20044;-41
2023/01/07 04:53:32;;;;;;;14.00;5.75;;;10.10;99.90;;;;;;5060014;28;21165;-37
2023/01/07 04:55:58;;;;;;;10.55;5.60;;;10.10;99.90;;;;;;5069814;28;20044;-37
2023/01/07 04:58:23;;;;;;;9.40;4.72;;;10.10;99.90;;;;;;5064389;28;20056;-38
2023/01/07 05:00:54;;;;;;;11.02;5.63;;;10.10;99.90;;;;;;5063790;28;20063;-36
2023/01/07 05:03:19;;;;;;;9.80;5.82;;;10.10;99.90;;;;;;5061046;28;20045;-37
2023/01/07 05:05:45;;;;;;;8.20;5.50;;;10.10;99.90;;;;;;5062683;28;20036;-36
2023/01/07 05:08:11;;;;;;;12.57;5.93;;;10.10;99.90;;;;;;5063855;28;20032;-37
2023/01/07 05:10:36;;;;;;;9.77;5.03;;;10.10;99.90;;;;;;5067169;28;20037;-43
2023/01/07 05:13:04;;;;;;;7.90;5.00;;;10.10;99.90;;;;;;5073062;28;20181;-42
2023/01/07 05:15:30;;;;;;;10.02;5.40;;;10.10;99.90;;;;;;5065276;28;20138;-36
2023/01/07 05:17:56;;;;;;;9.90;5.35;;;10.20;99.90;;;;;;5069579;28;20041;-37
2023/01/07 05:20:22;;;;;;;8.75;5.15;;;10.10;99.90;;;;;;5069657;28;20036;-36
2023/01/07 05:22:47;;;;;;;10.90;4.70;;;10.20;99.90;;;;;;5063507;28;20048;-36
2023/01/07 05:25:13;;;;;;;9.05;5.30;;;10.10;99.90;;;;;;5064485;28;20128;-40
2023/01/07 05:27:39;;;;;;;9.38;4.97;;;10.10;99.90;;;;;;5066302;28;20091;-37
2023/01/07 05:30:05;;;;;;;7.20;4.43;;;10.10;99.90;;;;;;5058714;28;20037;-36
2023/01/07 05:32:31;;;;;;;7.47;4.60;;;10.10;99.90;;;;;;5063478;28;20494;-37
2023/01/07 05:34:57;;;;;;;11.27;5.05;;;10.10;99.90;;;;;;5057802;28;20047;-36
2023/01/07 05:37:23;;;;;;;9.48;4.85;;;10.10;99.90;;;;;;5043993;28;20109;-36
2023/01/07 05:39:49;;;;;;;9.88;5.20;;;10.20;99.90;;;;;;5063892;28;20036;-38
2023/01/07 05:42:15;;;;;;;8.80;4.93;;;10.20;99.90;;;;;;5067318;28;20039;-38
2023/01/07 05:44:41;;;;;;;9.73;4.70;;;10.20;99.90;;;;;;5065522;28;20111;-36
2023/01/07 05:47:07;;;;;;;7.25;4.30;;;10.20;99.90;;;;;;5067704;28;20075;-37
2023/01/07 05:49:33;;;;;;;8.63;4.38;;;10.20;99.90;;;;;;5073159;28;20071;-39
2023/01/07 05:51:58;;;;;;;8.68;4.63;;;10.20;99.90;;;;;;5082855;28;20595;-37
2023/01/07 05:54:24;;;;;;;10.98;4.97;;;10.20;99.90;;;;;;5071017;28;20056;-41
2023/01/07 05:56:50;;;;;;;8.60;5.15;;;10.20;99.90;;;;;;5060421;28;20134;-37
2023/01/07 05:59:16;;;;;;;9.32;4.65;;;10.20;99.90;;;;;;5074325;28;20036;-40
2023/01/07 06:01:42;;;;;;;7.07;4.40;;;10.20;99.90;;;;;;5060962;28;20131;-37
2023/01/07 06:04:08;;;;;;;7.28;4.25;;;10.20;99.90;;;;;;5071486;28;20111;-36
2023/01/07 06:06:33;;;;;;;7.15;3.78;;;10.20;99.90;;;;;;5061239;28;20159;-39
2023/01/07 06:08:59;;;;;;;7.13;4.07;;;10.10;99.90;;;;;;5067471;28;20151;-37
2023/01/07 06:11:25;;;;;;;7.18;4.35;;;10.10;99.90;;;;;;5068170;28;20048;-36
2023/01/07 06:13:50;;;;;;;8.75;4.03;;;10.10;99.90;;;;;;5065119;28;20068;-38
2023/01/07 06:16:16;;;;;;;5.90;4.30;;;10.20;99.90;;;;;;5065517;28;20718;-37
2023/01/07 06:18:42;;;;;;;6.68;3.65;;;10.10;99.90;;;;;;5052989;28;20084;-37
2023/01/07 06:21:07;;;;;;;7.55;3.55;;;10.10;99.90;;;;;;5065671;28;20040;-37
2023/01/07 06:23:33;;;;;;;8.52;4.18;;;10.10;99.90;;;;;;5067599;28;20037;-38
2023/01/07 06:25:59;;;;;;;11.98;4.68;;;10.10;99.90;;;;;;5067631;28;20041;-38
2023/01/07 06:28:25;;;;;;;7.50;4.13;;;10.10;99.90;;;;;;5064462;28;20048;-37
2023/01/07 06:30:50;;;;;;;8.32;3.78;;;10.10;99.90;;;;;;5070038;28;20028;-37
2023/01/07 06:33:16;;;;;;;6.80;3.63;;;10.00;99.90;;;;;;5069430;28;20062;-37
2023/01/07 06:35:44;;;;;;;7.72;4.00;;;10.00;99.90;;;;;;5058942;28;20041;-36
2023/01/07 06:38:09;;;;;;;6.90;3.88;;;10.00;99.90;;;;;;5077077;28;21248;-38
2023/01/07 06:40:36;;;;;;;6.43;3.75;;;10.00;99.90;;;;;;5065834;28;20052;-37
2023/01/07 06:43:02;;;;;;;8.07;3.90;;;9.90;99.90;;;;;;5064382;28;20036;-38
2023/01/07 06:45:27;;;;;;;5.95;3.65;;;9.90;99.90;;;;;;5051803;28;20044;-37
2023/01/07 06:47:56;;;;;;;6.25;3.28;;;9.90;99.90;;;;;;5071468;28;20071;-36
2023/01/07 06:50:22;;;;;;;6.10;3.67;;;9.90;99.90;;;;;;5070873;28;20079;-37
2023/01/07 06:52:47;;;;;;;6.82;3.35;;;9.80;99.90;;;;;;5065170;28;20467;-37
2023/01/07 06:55:13;;;;;;;6.28;3.80;;;9.80;99.90;;;;;;5065609;28;20048;-37
2023/01/07 06:57:39;;;;;;;9.05;3.80;;;9.80;99.90;;;;;;5069509;28;20036;-37
2023/01/07 07:00:05;;;;;;;6.18;3.50;;;9.70;99.90;;;;;;5067655;28;20048;-38
2023/01/07 07:02:30;;;;;;;4.80;2.90;;;9.70;99.90;;;;;;5063673;28;20126;-37
2023/01/07 07:04:56;;;;;;;4.50;2.92;;;9.60;99.90;;;;;;5064734;28;20065;-35
2023/01/07 07:07:22;;;;;;;6.93;3.15;;;9.60;99.90;;;;;;5058392;28;21241;-40
2023/01/07 07:09:49;;;;;;;6.88;2.75;;;9.60;99.90;;;;;;5072563;28;20070;-34
2023/01/07 07:12:15;;;;;;;6.40;3.35;;;9.50;99.90;;;;;;5067288;28;20072;-38
2023/01/07 07:14:41;;;;;;;4.97;3.00;;;9.50;99.90;;;;;;5067222;28;20075;-38
2023/01/07 07:17:06;;;;;;;6.65;3.30;;;9.50;99.90;;;;;;5062109;28;20131;-37
2023/01/07 07:19:32;;;;;;;6.47;2.85;;;9.40;99.90;;;;;;5054353;28;20037;-35
2023/01/07 07:21:58;;;;;;;6.07;2.88;;;9.40;99.90;;;;;;5058849;28;20029;-37
2023/01/07 07:24:23;;;;;;;4.40;2.58;;;9.50;99.90;;;;;;5034815;28;20045;-35
2023/01/07 07:26:49;;;;;;;5.03;2.88;;;9.40;99.90;;;;;;5063916;28;20039;-38
2023/01/07 07:29:15;;;;;;;6.38;3.03;;;9.40;99.90;;;;;;5068445;28;20123;-38
2023/01/07 07:31:41;;;;;;;5.38;2.55;;;9.40;99.90;;;;;;5059435;28;20123;-39
2023/01/07 07:34:08;;;;;;;5.78;2.85;;;9.30;99.90;;;;;;5066065;28;20040;-38
2023/01/07 07:36:34;;;;;;;5.97;2.60;;;9.30;99.90;;;;;;5063513;28;20517;-37
2023/01/07 07:38:59;;;;;;;4.95;2.50;;;9.30;99.90;;;;;;5067795;28;20046;-37
2023/01/07 07:41:25;;;;;;;4.00;1.98;;;9.30;99.90;;;;;;5067424;28;20048;-42
2023/01/07 07:43:51;;;;;;;6.43;2.65;;;9.30;99.90;;;;;;5063997;28;20091;-38
2023/01/07 07:46:17;;;;;;;5.07;2.58;;;9.30;99.90;;;;;;5066088;28;20028;-37
2023/01/07 07:48:42;;;;;;;4.65;2.67;;;9.30;99.90;;;;;;5070748;28;20032;-35
2023/01/07 07:51:08;;;;;;;4.55;2.25;;;9.40;99.90;;;;;;5049212;28;20379;-35
2023/01/07 07:53:34;;;;;;;6.00;2.50;;;9.30;99.90;;;;;;5064731;28;20060;-36
2023/01/07 07:55:59;;;;;;;4.85;2.50;;;9.30;99.90;;;;;;5064278;28;20509;-35
2023/01/07 07:58:25;;;;;;;5.97;2.63;;;9.30;99.90;;;;;;5066748;28;20040;-39
2023/01/07 08:00:52;;;;;;;4.88;2.22;;;9.20;99.90;;;;;;5065085;28;20059;-36
2023/01/07 08:03:18;;;;;;;8.15;2.42;;;9.20;99.90;;;;;;5062747;28;20532;-38
2023/01/07 08:05:44;;;;;;;4.55;2.13;;;9.20;99.90;;;;;;5079241;28;20037;-35
2023/01/07 08:08:12;;;;;;;4.28;2.35;;;9.10;99.90;;;;;;5063188;28;20033;-35
2023/01/07 08:10:39;;;;;;;4.55;2.40;;;9.20;99.90;;;;;;5065389;28;20481;-38
2023/01/07 08:13:05;;;;;;;4.72;2.40;;;9.10;99.90;;;;;;5062327;28;20048;-41
2023/01/07 08:15:30;;;;;;;5.95;2.75;;;9.20;99.90;;;;;;5056308;28;20497;-42
2023/01/07 08:17:57;;;;;;;5.32;2.00;;;9.20;99.90;;;;;;5060903;28;20033;-37
2023/01/07 08:20:23;;;;;;;4.07;2.08;;;9.10;99.90;;;;;;5063324;28;20040;-38
2023/01/07 08:22:48;;;;;;;3.88;1.88;;;9.10;99.90;;;;;;5066258;28;20082;-37
2023/01/07 08:25:14;;;;;;;5.80;2.50;;;9.20;99.90;;;;;;5065276;28;20097;-40
2023/01/07 08:27:40;;;;;;;4.43;2.38;;;9.10;99.90;;;;;;5062993;28;20445;-37
2023/01/07 08:30:06;;;;;;;5.93;2.17;;;9.10;99.90;;;;;;5062884;28;20045;-36
2023/01/07 08:32:32;;;;;;;4.18;2.15;;;9.10;99.90;;;;;;5066768;28;20068;-39
2023/01/07 08:34:57;;;;;;;3.13;1.70;;;9.10;99.90;;;;;;5060862;28;20116;-37
2023/01/07 08:37:23;;;;;;;4.78;2.17;;;9.20;99.90;;;;;;5060594;28;20486;-35
2023/01/07 08:39:49;;;;;;;4.38;1.73;;;9.20;99.90;;;;;;5063052;28;20440;-34
2023/01/07 08:42:14;;;;;;;3.10;1.63;;;9.20;99.90;;;;;;5061911;28;20105;-39
2023/01/07 08:44:40;;;;;;;4.07;1.85;;;9.20;99.90;;;;;;5062913;28;20601;-37
2023/01/07 08:47:05;;;;;;;5.63;2.33;;;9.20;99.90;;;;;;5065688;28;20501;-38
2023/01/07 08:49:31;;;;;;;2.72;1.48;;;9.20;99.90;;;;;;5069928;28;20124;-38
2023/01/07 08:51:57;;;;;;;8.27;2.42;;;9.20;99.90;;;;;;5063702;28;20057;-39
2023/01/07 08:54:22;;;;;;;4.38;2.30;;;9.20;99.90;;;;;;5061715;28;20123;-35
2023/01/07 08:56:48;;;;;;;3.75;1.85;;;9.20;99.90;;;;;;5067915;28;20123;-38
2023/01/07 08:59:14;;;;;;;3.03;1.73;;;9.20;99.90;;;;;;5064315;28;20037;-40
2023/01/07 09:01:39;;;;;;;4.85;1.67;;;9.20;99.90;;;;;;5063536;28;20033;-37
2023/01/07 09:04:05;;;;;;;4.38;1.92;;;9.20;99.90;;;;;;5047676;28;20032;-37
2023/01/07 09:06:31;;;;;;;4.70;2.00;;;9.20;99.90;;;;;;5067496;28;20136;-34
2023/01/07 09:08:56;;;;;;;3.83;1.65;;;9.20;99.90;;;;;;5061042;28;20075;-36
2023/01/07 09:11:22;;;;;;;4.85;1.80;;;9.30;99.90;;;;;;5080110;28;20044;-41
2023/01/07 09:13:48;;;;;;;3.70;2.20;;;9.30;99.90;;;;;;5064363;28;20048;-39
2023/01/07 09:16:13;;;;;;;7.10;1.90;;;9.30;99.90;;;;;;5069557;28;20044;-37
2023/01/07 09:18:39;;;;;;;3.60;1.73;;;9.40;99.90;;;;;;5067275;28;20052;-37
2023/01/07 09:21:05;;;;;;;3.70;1.77;;;9.40;99.90;;;;;;5071605;28;20081;-38
2023/01/07 09:23:31;;;;;;;2.97;1.60;;;9.40;99.90;;;;;;5063850;28;20090;-36
2023/01/07 09:25:56;;;;;;;6.15;1.98;;;9.50;99.90;;;;;;5067462;28;20029;-37
2023/01/07 09:28:22;;;;;;;3.83;1.88;;;9.50;99.90;;;;;;5070886;28;20036;-37
2023/01/07 09:30:48;;;;;;;3.72;1.70;;;9.50;99.90;;;;;;5067603;28;20501;-36
2023/01/07 09:33:13;;;;;;;9.30;2.60;;;9.60;99.90;;;;;;5064795;28;20036;-38
2023/01/07 09:35:39;;;;;;;6.47;1.70;;;9.60;99.90;;;;;;5062801;28;20035;-38
2023/01/07 09:38:05;;;;;;;4.25;1.50;;;9.60;99.90;;;;;;5064978;28;20081;-37
2023/01/07 09:40:36;;;;;;;3.20;1.35;;;9.70;99.90;;;;;;5066711;28;20092;-36
2023/01/07 09:43:13;;;;;;;2.92;1.17;;;9.70;99.90;;;;;;5061465;28;20098;-36
2023/01/07 09:45:46;;;;;;;3.33;1.25;;;9.80;99.90;;;;;;5068056;28;20036;-36
2023/01/07 09:48:33;;;;;;;5.95;1.48;;;9.80;99.90;;;;;;5070429;28;20126;-37
2023/01/07 09:51:36;;;;;;;3.22;1.33;;;9.80;99.90;;;;;;5064382;28;20067;-38
2023/01/07 09:54:04;;;;;;;3.72;1.40;;;9.90;99.90;;;;;;5063538;28;20044;-40
2023/01/07 09:56:32;;;;;;;2.33;1.33;;;9.90;99.90;;;;;;5074414;28;20042;-38
2023/01/07 09:58:59;;;;;;;4.07;1.40;;;10.00;99.90;;;;;;5052004;28;20777;-37
2023/01/07 10:01:38;;;;;;;3.95;1.08;;;10.10;99.90;;;;;;5069369;28;20131;-37
2023/01/07 10:04:34;;;;;;;2.67;1.15;;;10.10;99.90;;;;;;5070173;28;20085;-35
2023/01/07 10:07:20;;;;;;;2.75;1.05;;;10.20;99.90;;;;;;5067808;28;20037;-36
2023/01/07 10:09:56;;;;;;;3.03;1.48;;;10.30;99.90;;;;;;5069667;28;20481;-36
2023/01/07 10:12:49;;;;;;;5.45;1.48;;;10.30;99.90;;;;;;5065779;28;20143;-40
2023/01/07 10:15:40;;;;;;;10.77;1.60;;;10.40;99.90;;;;;;5062105;28;20129;-38
2023/01/07 10:18:18;;;;;;;2.88;1.27;;;10.40;99.90;;;;;;5077045;28;20044;-37
2023/01/07 10:21:17;;;;;;;3.53;0.95;;;10.50;99.90;;;;;;5065651;28;20502;-37
2023/01/07 10:23:46;;;;;;;4.15;1.20;;;10.50;99.90;;;;;;5051671;28;20041;-38
2023/01/07 10:26:27;;;;;;;4.50;0.93;;;10.60;99.90;;;;;;5067938;28;20039;-36
2023/01/07 10:29:01;;;;;;;3.33;1.40;;;10.60;99.90;;;;;;5062028;28;20036;-39
2023/01/07 10:31:28;;;;;;;2.67;1.27;;;10.60;99.90;;;;;;5064384;28;20044;-38
2023/01/07 10:33:56;;;;;;;2.55;1.10;;;10.70;99.90;;;;;;5070140;28;20058;-35
2023/01/07 10:36:24;;;;;;;5.05;1.20;;;10.70;99.90;;;;;;5068327;28;20045;-34
2023/01/07 10:39:13;;;;;;;3.22;1.00;;;10.70;99.90;;;;;;5065176;28;20055;-38
2023/01/07 10:41:42;;;;;;;2.05;0.93;;;10.70;99.90;;;;;;5067583;28;20043;-35
2023/01/07 10:44:36;;;;;;;3.65;1.00;;;10.60;99.90;;;;;;5069673;28;20036;-39
2023/01/07 10:47:16;;;;;;;2.25;1.23;;;10.70;99.90;;;;;;5047114;28;20556;-35
2023/01/07 10:50:11;;;;;;;4.28;0.93;;;10.70;99.90;;;;;;5066064;28;20046;-37
2023/01/07 10:52:40;;;;;;;2.95;1.02;;;10.70;99.90;;;;;;5043242;28;20059;-37
2023/01/07 10:55:20;;;;;;;5.00;1.30;;;10.70;99.90;;;;;;5068810;28;20098;-35
2023/01/07 10:57:47;;;;;;;2.33;0.95;;;10.80;99.90;;;;;;5066374;28;20036;-35
2023/01/07 11:00:15;;;;;;;3.33;1.00;;;10.80;99.90;;;;;;5077035;28;20108;-36
2023/01/07 11:02:56;;;;;;;3.08;0.80;;;10.80;99.90;;;;;;5065292;28;20098;-40
2023/01/07 11:05:31;;;;;;;2.78;1.38;;;10.80;99.90;;;;;;5059797;28;20105;-48
2023/01/07 11:08:00;;;;;;;1.67;0.90;;;10.80;99.90;;;;;;5060489;28;20040;-59
2023/01/07 11:10:33;;;;;;;2.40;1.08;;;10.80;99.90;;;;;;5060833;28;20374;-49
2023/01/07 11:13:17;;;;;;;3.22;0.80;;;10.70;99.90;;;;;;5057508;28;20078;-40
2023/01/07 11:15:49;;;;;;;2.42;1.00;;;10.70;99.90;;;;;;5065641;28;20486;-49
2023/01/07 11:18:41;;;;;;;2.78;1.05;;;10.70;99.90;;;;;;5062136;28;20041;-49
2023/01/07 11:21:06;;;;;;;2.25;1.00;;;10.70;99.90;;;;;;5052648;28;20697;-49
2023/01/07 11:23:37;;;;;;;2.60;0.70;;;10.70;99.90;;;;;;5072192;28;20083;-49
2023/01/07 11:26:25;;;;;;;4.43;1.17;;;10.70;99.90;;;;;;5066776;28;20033;-49
2023/01/07 11:28:54;;;;;;;2.28;1.00;;;10.80;99.90;;;;;;5062729;28;20047;-48
2023/01/07 11:31:22;;;;;;;2.00;0.80;;;10.80;99.90;;;;;;5061056;28;20068;-48
2023/01/07 11:33:53;;;;;;;1.98;1.00;;;10.80;99.90;;;;;;5069133;28;20492;-48
2023/01/07 11:36:19;;;;;;;2.20;1.00;;;10.90;99.90;;;;;;5066862;28;20041;-49
2023/01/07 11:38:45;;;;;;;2.13;0.90;;;10.90;99.90;;;;;;5066348;28;20374;-47
2023/01/07 11:41:23;;;;;;;1.90;0.85;;;10.90;99.90;;;;;;5070126;28;20055;-47
2023/01/07 11:43:53;;;;;;;1.80;0.90;;;11.00;99.90;;;;;;5064220;28;20047;-46
2023/01/07 11:46:21;;;;;;;2.30;0.90;;;11.00;99.90;;;;;;5067018;28;20037;-50
2023/01/07 11:48:51;;;;;;;2.20;0.90;;;11.20;99.90;;;;;;5056195;28;20041;-50
2023/01/07 11:51:18;;;;;;;2.55;1.10;;;11.50;99.90;;;;;;5063980;28;20040;-47
2023/01/07 11:53:55;;;;;;;2.67;0.90;;;11.80;99.90;;;;;;5061607;28;20585;-45
2023/01/07 11:56:21;;;;;;;1.58;0.68;;;12.10;99.90;;;;;;5058273;28;20042;-49
2023/01/07 11:58:51;;;;;;;3.70;0.80;;;12.10;99.90;;;;;;5067771;28;20044;-48
2023/01/07 12:01:22;;;;;;;1.85;0.60;;;12.30;99.90;;;;;;5056269;28;20461;-47
2023/01/07 12:03:50;;;;;;;2.30;0.80;;;12.50;99.90;;;;;;5056558;28;20068;-47
2023/01/07 12:06:25;;;;;;;2.38;0.85;;;12.60;99.90;;;;;;5058104;28;20115;-47
2023/01/07 12:09:28;;;;;;;1.42;0.70;;;12.80;99.90;;;;;;5063493;28;20550;-50
2023/01/07 12:11:57;;;;;;;2.25;0.88;;;12.70;99.90;;;;;;5057691;28;21418;-42
2023/01/07 12:14:32;;;;;;;2.58;0.73;;;12.70;99.90;;;;;;5069808;28;20127;-45
2023/01/07 12:17:16;;;;;;;1.50;0.70;;;12.70;99.90;;;;;;5061903;28;20058;-49
2023/01/07 12:20:12;;;;;;;1.52;0.60;;;12.70;99.90;;;;;;5068688;28;20055;-47
2023/01/07 12:23:19;;;;;;;1.52;0.55;;;13.00;99.90;;;;;;5066194;28;20040;-45
2023/01/07 12:26:06;;;;;;;1.08;0.40;;;13.20;99.90;;;;;;5022271;28;20074;-48
2023/01/07 12:28:45;;;;;;;1.52;0.60;;;13.20;99.90;;;;;;5053797;28;20394;-49
2023/01/07 12:31:33;;;;;;;1.55;0.50;;;13.30;99.90;;;;;;5067506;28;20045;-49
2023/01/07 12:34:26;;;;;;;1.45;0.60;;;13.50;99.90;;;;;;5059473;28;20040;-44
2023/01/07 12:37:01;;;;;;;1.38;0.70;;;13.60;99.90;;;;;;5052813;28;20039;-48
2023/01/07 12:39:32;;;;;;;0.90;0.50;;;13.70;99.90;;;;;;5066811;28;20131;-49
2023/01/07 12:42:16;;;;;;;1.83;0.63;;;13.80;99.50;;;;;;5044851;28;20052;-54
2023/01/07 12:44:47;;;;;;;1.75;0.30;;;13.80;98.80;;;;;;5066683;28;20141;-46
2023/01/07 12:47:40;;;;;;;1.33;0.40;;;13.90;99.30;;;;;;5051585;28;20035;-50
2023/01/07 12:50:15;;;;;;;1.92;0.60;;;13.90;98.50;;;;;;5071236;28;20402;-47
2023/01/07 12:53:01;;;;;;;1.70;0.50;;;14.00;97.60;;;;;;5059599;28;20519;-51
2023/01/07 12:55:32;;;;;;;2.13;0.50;;;14.10;97.50;;;;;;5055717;28;20041;-48
2023/01/07 12:58:06;;;;;;;0.75;0.40;;;14.20;97.20;;;;;;5062184;28;20048;-49
2023/01/07 13:01:00;;;;;;;1.48;0.50;;;14.20;97.40;;;;;;5060449;28;20147;-48
2023/01/07 13:03:45;;;;;;;1.25;0.50;;;14.20;97.20;;;;;;5062124;28;20060;-49